LFLS/GNB METAR and TAF weather

Enter ICAO airport designator
Station Type Date Time Source
LFLS METAR 2021/07/26 17:30 UTC NOAA

LFLS 261730Z AUTO 33005KT CAVOK 25/14 Q1014 NOSIG


Station Type Date Time Source
LFLS Decoded METAR 2021/07/26 17:30 UTC NOAA

Grenoble / St. Geoirs, France (LFLS) 45-22N 005-20E 386M
Jul 26, 2021 - 01:30 PM EDT / 2021.07.26 1730 UTC
Wind: from the NNW (330 degrees) at 6 MPH (5 KT):0
Visibility: greater than 7 mile(s):0
Temperature: 77 F (25 C)
Dew Point: 57 F (14 C)
Relative Humidity: 50%
Pressure (altimeter): 29.94 in. Hg (1014 hPa)
ob: LFLS 261730Z AUTO 33005KT CAVOK 25/14 Q1014 NOSIG
cycle: 17

Station Type Date Time Source
LFLS TAF 2021/07/26 15:42 UTC NOAA

TAF LFLS 261400Z 2615/2715 36006KT CAVOK PROB30
TEMPO 2615/2617 SCT040 BKN055
BECMG 2700/2703 VRB03KT
BECMG 2709/2712 23010KT PROB30
TEMPO 2712/2715 FEW070TCU

Example: see airport list